Time;durP1;ratioP1;P1;durP2;ratioP2;P2;SDS_P1;SDS_P2;PMS_P1;PMS_P2;Temp;Humidity;BMP_temperature;BMP_pressure;BME280_temperature;BME280_humidity;BME280_pressure;Samples;Min_cycle;Max_cycle;Signal;HPM_P1;HPM_P2
2021/08/13 00:01:55;;;;;;;9.40;5.63;;;25.00;83.20;;;;;;4247405;27;20047;-70
2021/08/13 00:03:58;;;;;;;12.85;5.50;;;25.00;83.80;;;;;;4265951;27;20555;-69
2021/08/13 00:06:03;;;;;;;11.65;5.32;;;24.90;83.80;;;;;;4265830;27;20051;-71
2021/08/13 00:08:06;;;;;;;6.55;5.47;;;24.80;82.90;;;;;;4266056;27;20047;-69
2021/08/13 00:10:10;;;;;;;8.70;6.00;;;24.80;83.50;;;;;;4266185;27;20042;-72
2021/08/13 00:12:12;;;;;;;15.73;5.65;;;24.80;83.30;;;;;;4265957;27;20084;-71
2021/08/13 00:14:15;;;;;;;9.88;5.70;;;24.70;83.10;;;;;;4265753;27;20043;-71
2021/08/13 00:16:18;;;;;;;11.70;5.97;;;24.70;83.10;;;;;;4265613;27;20043;-71
2021/08/13 00:18:21;;;;;;;10.20;5.50;;;24.70;83.70;;;;;;4265738;27;20047;-71
2021/08/13 00:20:24;;;;;;;11.00;5.78;;;24.60;83.90;;;;;;4265782;27;20051;-70
2021/08/13 00:22:29;;;;;;;12.63;5.93;;;24.60;84.10;;;;;;4265712;27;20422;-71
2021/08/13 00:24:32;;;;;;;8.43;5.38;;;24.60;83.70;;;;;;4265658;27;20059;-71
2021/08/13 00:26:35;;;;;;;7.47;5.57;;;24.60;83.10;;;;;;4265717;27;20046;-71
2021/08/13 00:28:38;;;;;;;11.00;6.43;;;24.60;83.20;;;;;;4265367;27;20104;-70
2021/08/13 00:30:40;;;;;;;8.90;5.65;;;24.60;83.50;;;;;;4265304;27;20404;-71
2021/08/13 00:32:44;;;;;;;10.93;5.88;;;24.50;83.50;;;;;;4247101;27;20453;-74
2021/08/13 00:34:46;;;;;;;9.70;5.63;;;24.60;82.40;;;;;;4255806;27;20088;-71
2021/08/13 00:36:49;;;;;;;10.85;5.82;;;24.50;82.60;;;;;;4248114;27;20123;-70
2021/08/13 00:38:54;;;;;;;7.90;5.82;;;24.60;82.50;;;;;;4248006;27;20047;-71
2021/08/13 00:40:57;;;;;;;9.35;5.85;;;24.60;83.20;;;;;;4248333;27;20353;-71
2021/08/13 00:43:00;;;;;;;14.40;6.13;;;24.50;82.20;;;;;;4248075;27;20051;-71
2021/08/13 00:45:05;;;;;;;10.50;6.03;;;24.60;82.50;;;;;;4247935;27;20087;-72
2021/08/13 00:47:08;;;;;;;18.77;6.75;;;24.50;83.30;;;;;;4247947;27;20055;-71
2021/08/13 00:49:10;;;;;;;14.18;5.80;;;24.50;82.60;;;;;;4248045;27;20062;-71
2021/08/13 00:51:14;;;;;;;14.43;6.20;;;24.40;82.60;;;;;;4247803;27;20112;-75
2021/08/13 00:53:17;;;;;;;11.88;6.07;;;24.40;82.70;;;;;;4247848;27;20055;-72
2021/08/13 00:55:21;;;;;;;11.23;6.22;;;24.30;83.50;;;;;;4248111;27;20097;-81
2021/08/13 00:57:24;;;;;;;8.77;5.90;;;24.30;83.10;;;;;;4247852;27;20126;-71
2021/08/13 00:59:28;;;;;;;10.60;5.78;;;24.30;83.30;;;;;;4229782;28;20121;-71
2021/08/13 01:01:31;;;;;;;10.65;5.57;;;24.20;83.10;;;;;;4247506;27;20051;-71
2021/08/13 01:03:34;;;;;;;11.20;5.80;;;24.20;82.50;;;;;;4247069;27;20055;-70
2021/08/13 01:05:37;;;;;;;11.18;6.03;;;24.30;83.30;;;;;;4247657;27;20047;-71
2021/08/13 01:07:40;;;;;;;9.32;5.72;;;24.30;82.80;;;;;;4247457;27;20112;-71
2021/08/13 01:09:43;;;;;;;13.27;5.93;;;24.20;83.30;;;;;;4238684;27;20047;-74
2021/08/13 01:11:55;;;;;;;9.48;5.40;;;24.20;83.30;;;;;;4264707;27;20054;-71
2021/08/13 01:14:03;;;;;;;8.50;5.55;;;24.10;83.00;;;;;;4264546;27;20059;-71
2021/08/13 01:16:06;;;;;;;14.75;6.00;;;24.10;83.20;;;;;;4264601;27;20586;-76
2021/08/13 01:18:12;;;;;;;9.75;5.60;;;24.10;83.00;;;;;;4264377;27;20055;-71
2021/08/13 01:20:28;;;;;;;12.07;5.88;;;24.00;83.00;;;;;;4246109;27;20136;-74
2021/08/13 01:22:36;;;;;;;9.00;5.50;;;24.00;83.10;;;;;;4246223;27;20108;-69
2021/08/13 01:24:46;;;;;;;12.93;5.75;;;24.00;83.60;;;;;;4264485;27;20119;-74
2021/08/13 01:26:55;;;;;;;10.73;6.30;;;23.90;84.00;;;;;;4264426;27;20042;-72
2021/08/13 01:29:06;;;;;;;11.75;5.43;;;23.90;84.20;;;;;;4264430;27;20115;-71
2021/08/13 01:31:15;;;;;;;11.60;5.88;;;23.90;84.20;;;;;;4265879;27;20126;-71
2021/08/13 01:33:21;;;;;;;11.63;6.00;;;23.80;84.20;;;;;;4265196;27;20058;-71
2021/08/13 01:35:27;;;;;;;13.23;6.22;;;23.80;84.10;;;;;;4264406;27;20259;-73
2021/08/13 01:37:31;;;;;;;10.93;6.55;;;23.80;83.70;;;;;;4264542;27;20050;-71
2021/08/13 01:39:35;;;;;;;8.40;6.10;;;23.80;83.80;;;;;;4264385;27;20046;-71
2021/08/13 01:41:39;;;;;;;13.20;6.47;;;23.70;85.00;;;;;;4264382;27;20470;-72
2021/08/13 01:43:44;;;;;;;12.00;5.90;;;23.80;84.40;;;;;;4264179;27;20066;-71
2021/08/13 01:45:48;;;;;;;12.30;6.43;;;23.70;84.90;;;;;;4264139;27;20520;-72
2021/08/13 01:47:52;;;;;;;15.67;6.53;;;23.70;84.50;;;;;;4264088;27;20539;-71
2021/08/13 01:49:57;;;;;;;10.20;6.57;;;23.70;85.00;;;;;;4264153;27;20043;-73
2021/08/13 01:52:00;;;;;;;;;;;23.70;85.10;;;;;;4265637;27;20087;-72
2021/08/13 01:54:04;;;;;;;14.43;6.32;;;23.70;84.90;;;;;;4265295;27;19923;-70
2021/08/13 01:56:08;;;;;;;12.63;6.78;;;23.70;84.60;;;;;;4264453;27;20733;-71
2021/08/13 01:58:11;;;;;;;11.35;6.50;;;23.70;84.20;;;;;;4264465;27;20236;-71
2021/08/13 02:00:16;;;;;;;14.65;6.35;;;23.60;83.80;;;;;;4264287;27;20080;-71
2021/08/13 02:02:20;;;;;;;12.00;6.47;;;23.60;84.10;;;;;;4264042;27;20091;-71
2021/08/13 02:04:23;;;;;;;8.48;5.88;;;23.60;84.30;;;;;;4263652;27;20043;-71
2021/08/13 02:06:29;;;;;;;13.32;6.25;;;23.60;84.10;;;;;;4263691;27;20084;-72
2021/08/13 02:08:34;;;;;;;12.23;5.97;;;23.70;83.40;;;;;;4263855;27;20046;-71
2021/08/13 02:10:41;;;;;;;10.05;5.50;;;23.70;83.80;;;;;;4263859;27;20050;-72
2021/08/13 02:12:44;;;;;;;15.50;6.18;;;23.70;83.50;;;;;;4263913;27;20047;-73
2021/08/13 02:14:47;;;;;;;11.80;5.55;;;23.60;83.50;;;;;;4262964;27;20047;-71
2021/08/13 02:16:53;;;;;;;9.70;6.00;;;23.60;83.40;;;;;;4263594;27;20119;-71
2021/08/13 02:19:03;;;;;;;11.20;6.30;;;23.60;84.20;;;;;;4263586;27;20115;-72
2021/08/13 02:21:12;;;;;;;14.98;5.60;;;23.60;84.10;;;;;;4245312;27;20464;-71
2021/08/13 02:23:19;;;;;;;8.38;5.50;;;23.50;84.70;;;;;;4263560;27;20083;-71
2021/08/13 02:25:22;;;;;;;11.65;5.55;;;23.40;85.20;;;;;;4263298;27;20075;-71
2021/08/13 02:27:26;;;;;;;9.00;5.55;;;23.40;85.10;;;;;;4263614;27;20111;-72
2021/08/13 02:29:29;;;;;;;7.72;6.28;;;23.20;85.40;;;;;;4245531;27;20050;-71
2021/08/13 02:31:32;;;;;;;11.07;6.18;;;23.20;86.10;;;;;;4263595;27;20050;-71
2021/08/13 02:33:35;;;;;;;10.32;5.65;;;23.20;85.40;;;;;;4263443;27;20467;-71
2021/08/13 02:35:38;;;;;;;8.43;5.50;;;23.20;85.30;;;;;;4246488;27;20492;-71
2021/08/13 02:37:47;;;;;;;12.95;5.70;;;23.20;85.10;;;;;;4246274;27;20112;-72
2021/08/13 02:39:55;;;;;;;10.60;5.65;;;23.20;84.70;;;;;;4246284;27;20055;-71
2021/08/13 02:42:00;;;;;;;18.35;6.53;;;23.20;85.20;;;;;;4246277;27;20109;-71
2021/08/13 02:44:06;;;;;;;8.13;5.75;;;23.20;86.00;;;;;;4246460;27;20487;-71
2021/08/13 02:46:11;;;;;;;11.15;5.43;;;23.10;85.30;;;;;;4246132;27;20055;-71
2021/08/13 02:48:16;;;;;;;10.85;5.43;;;23.20;84.70;;;;;;4246293;27;20116;-84
2021/08/13 02:50:21;;;;;;;8.27;5.07;;;23.20;84.80;;;;;;4246334;27;20108;-72
2021/08/13 02:52:30;;;;;;;11.70;6.03;;;23.20;84.60;;;;;;4246097;27;20099;-71
2021/08/13 02:54:35;;;;;;;6.10;5.07;;;23.20;84.60;;;;;;4246287;27;20119;-71
2021/08/13 02:56:41;;;;;;;9.35;5.50;;;23.20;84.40;;;;;;4246167;27;20568;-82
2021/08/13 02:58:47;;;;;;;13.82;5.93;;;23.20;84.30;;;;;;4246373;27;20080;-69
2021/08/13 03:00:53;;;;;;;6.60;5.60;;;23.10;85.90;;;;;;4245852;27;20080;-72
2021/08/13 03:02:56;;;;;;;7.47;5.72;;;23.00;86.20;;;;;;4245906;27;20552;-78
2021/08/13 03:05:02;;;;;;;11.70;6.32;;;22.90;86.10;;;;;;4245901;27;20100;-75
2021/08/13 03:07:05;;;;;;;7.20;5.53;;;22.90;86.40;;;;;;4246222;28;20521;-86
2021/08/13 03:09:09;;;;;;;13.15;5.25;;;23.00;86.10;;;;;;4250126;27;20054;-75
2021/08/13 03:11:14;;;;;;;7.70;5.00;;;23.00;85.90;;;;;;4262922;27;20107;-82
2021/08/13 03:13:22;;;;;;;10.50;5.90;;;22.90;85.70;;;;;;4263091;27;20440;-79
2021/08/13 03:15:25;;;;;;;9.70;6.03;;;23.00;86.20;;;;;;4245308;27;20127;-71
2021/08/13 03:17:30;;;;;;;9.98;5.75;;;23.00;85.80;;;;;;4263609;27;20054;-71
2021/08/13 03:19:33;;;;;;;7.43;5.30;;;23.00;86.10;;;;;;4263141;27;20142;-71
2021/08/13 03:21:36;;;;;;;9.77;6.35;;;23.00;85.70;;;;;;4263048;27;20042;-71
2021/08/13 03:23:40;;;;;;;8.15;5.85;;;23.00;85.90;;;;;;4263153;27;20078;-71
2021/08/13 03:25:44;;;;;;;16.10;5.88;;;23.00;86.40;;;;;;4262867;27;20490;-71
2021/08/13 03:27:48;;;;;;;7.85;5.38;;;22.90;85.90;;;;;;4266715;27;20119;-70
2021/08/13 03:29:52;;;;;;;10.52;5.72;;;23.00;85.50;;;;;;4266477;27;20115;-77
2021/08/13 03:32:01;;;;;;;18.98;6.25;;;22.90;86.40;;;;;;4266368;27;20047;-69
2021/08/13 03:34:05;;;;;;;9.85;6.32;;;22.80;86.40;;;;;;4266014;27;20095;-71
2021/08/13 03:36:10;;;;;;;12.88;5.60;;;22.70;87.40;;;;;;4266221;27;20050;-75
2021/08/13 03:38:13;;;;;;;11.60;6.35;;;22.70;87.50;;;;;;4266061;27;20047;-71
2021/08/13 03:40:16;;;;;;;11.52;6.28;;;22.80;87.00;;;;;;4266167;27;20050;-71
2021/08/13 03:42:18;;;;;;;10.13;5.90;;;22.80;86.40;;;;;;4266085;27;20414;-71
2021/08/13 03:44:21;;;;;;;11.13;5.93;;;22.80;86.10;;;;;;4266358;27;20456;-72
2021/08/13 03:46:26;;;;;;;15.20;6.00;;;22.80;85.90;;;;;;4266308;27;20399;-80
2021/08/13 03:48:29;;;;;;;10.88;6.47;;;22.80;86.40;;;;;;4266051;27;20099;-71
2021/08/13 03:50:32;;;;;;;12.50;5.70;;;22.80;86.50;;;;;;4265827;27;20733;-71
2021/08/13 03:52:35;;;;;;;19.70;7.10;;;22.70;86.00;;;;;;4265792;27;20766;-74
2021/08/13 03:54:38;;;;;;;12.15;6.05;;;22.70;86.20;;;;;;4266000;27;20042;-71
2021/08/13 03:56:41;;;;;;;15.10;5.63;;;22.80;85.80;;;;;;4265797;27;20055;-69
2021/08/13 03:58:44;;;;;;;9.68;5.53;;;22.80;85.10;;;;;;4265828;27;20059;-69
2021/08/13 04:00:47;;;;;;;15.10;5.95;;;22.80;85.80;;;;;;4266160;27;20050;-75
2021/08/13 04:02:51;;;;;;;14.90;6.00;;;22.80;86.00;;;;;;4266577;27;20042;-72
2021/08/13 04:04:55;;;;;;;11.98;5.68;;;22.70;85.70;;;;;;4266030;27;20046;-73
2021/08/13 04:06:58;;;;;;;10.70;5.72;;;22.70;85.20;;;;;;4266102;27;20055;-71
2021/08/13 04:09:01;;;;;;;11.85;5.65;;;22.70;85.30;;;;;;4265773;27;20107;-69
2021/08/13 04:11:04;;;;;;;10.68;5.22;;;22.70;86.50;;;;;;4266309;27;20050;-69
2021/08/13 04:13:07;;;;;;;10.40;4.80;;;22.70;85.20;;;;;;4267139;27;20087;-71
2021/08/13 04:15:10;;;;;;;10.93;5.63;;;22.70;85.20;;;;;;4266916;27;20518;-69
2021/08/13 04:17:13;;;;;;;13.20;5.20;;;22.60;85.90;;;;;;4267439;27;20055;-71
2021/08/13 04:19:18;;;;;;;9.38;5.22;;;22.60;85.50;;;;;;4266367;27;20559;-70
2021/08/13 04:21:21;;;;;;;13.27;5.30;;;22.60;85.80;;;;;;4247574;27;20054;-72
2021/08/13 04:23:23;;;;;;;9.63;5.70;;;22.50;86.40;;;;;;4247340;27;20127;-71
2021/08/13 04:25:26;;;;;;;11.57;5.80;;;22.50;85.80;;;;;;4265623;27;20103;-71
2021/08/13 04:27:29;;;;;;;10.82;5.72;;;22.50;85.60;;;;;;4265905;27;20050;-71
2021/08/13 04:29:32;;;;;;;15.18;5.20;;;22.40;86.10;;;;;;4265685;27;20079;-70
2021/08/13 04:31:35;;;;;;;16.60;6.03;;;22.40;86.00;;;;;;4265771;27;20038;-68
2021/08/13 04:33:38;;;;;;;14.68;5.35;;;22.40;85.70;;;;;;4266655;27;20054;-71
2021/08/13 04:35:42;;;;;;;16.83;5.00;;;22.40;86.40;;;;;;4266045;27;20103;-74
2021/08/13 04:37:45;;;;;;;9.95;5.07;;;22.40;85.70;;;;;;4264946;27;20051;-70
2021/08/13 04:39:52;;;;;;;10.25;5.18;;;22.40;86.40;;;;;;4265941;27;20055;-72
2021/08/13 04:41:55;;;;;;;16.05;6.00;;;22.30;86.40;;;;;;4265793;27;20119;-73
2021/08/13 04:43:58;;;;;;;10.90;5.55;;;22.30;86.60;;;;;;4265443;27;20047;-70
2021/08/13 04:46:01;;;;;;;9.32;4.95;;;22.20;87.10;;;;;;4265495;27;20065;-70
2021/08/13 04:48:05;;;;;;;8.63;5.05;;;22.20;86.50;;;;;;4265254;27;20664;-71
2021/08/13 04:50:09;;;;;;;14.73;5.00;;;22.20;86.20;;;;;;4265145;27;20509;-70
2021/08/13 04:52:13;;;;;;;8.35;4.47;;;22.20;86.20;;;;;;4265227;27;20057;-70
2021/08/13 04:54:16;;;;;;;;;;;22.30;85.90;;;;;;4247141;27;20048;-70
2021/08/13 04:56:19;;;;;;;10.75;4.80;;;22.30;85.20;;;;;;4265075;27;19918;-77
2021/08/13 04:58:22;;;;;;;14.52;4.85;;;22.30;85.30;;;;;;4265114;27;20051;-82
2021/08/13 05:00:25;;;;;;;16.90;5.05;;;22.40;85.50;;;;;;4264814;27;20506;-77
2021/08/13 05:02:29;;;;;;;22.55;5.18;;;22.30;85.40;;;;;;4265071;27;20039;-72
2021/08/13 05:04:33;;;;;;;12.18;5.43;;;22.30;85.70;;;;;;4265860;27;20047;-70
2021/08/13 05:06:35;;;;;;;12.50;4.68;;;22.30;85.50;;;;;;4265332;27;20107;-73
2021/08/13 05:08:40;;;;;;;11.60;4.75;;;22.30;85.30;;;;;;4264926;27;20143;-70
2021/08/13 05:10:48;;;;;;;12.10;4.47;;;22.30;85.90;;;;;;4264752;27;20050;-71
2021/08/13 05:12:51;;;;;;;12.38;5.32;;;22.20;85.60;;;;;;4265039;27;20102;-82
2021/08/13 05:14:54;;;;;;;15.27;4.75;;;22.20;86.20;;;;;;4264612;27;20058;-70
2021/08/13 05:16:57;;;;;;;12.18;4.60;;;22.20;85.70;;;;;;4246548;27;20055;-71
2021/08/13 05:19:00;;;;;;;14.05;4.60;;;22.20;85.70;;;;;;4264738;27;20103;-71
2021/08/13 05:21:05;;;;;;;19.83;4.68;;;22.10;85.50;;;;;;4265185;27;20458;-74
2021/08/13 05:23:08;;;;;;;10.90;4.97;;;22.20;86.00;;;;;;4265778;27;20047;-71
2021/08/13 05:25:16;;;;;;;18.02;4.93;;;22.20;85.70;;;;;;4265774;27;20059;-70
2021/08/13 05:27:19;;;;;;;8.32;4.57;;;22.20;85.30;;;;;;4264985;27;20502;-71
2021/08/13 05:29:22;;;;;;;12.38;4.72;;;22.20;85.10;;;;;;4246525;27;20670;-71
2021/08/13 05:31:25;;;;;;;9.85;4.50;;;22.30;85.30;;;;;;4264678;27;20449;-71
2021/08/13 05:33:29;;;;;;;22.80;5.55;;;22.30;85.20;;;;;;4264829;27;20055;-70
2021/08/13 05:35:34;;;;;;;18.05;5.65;;;22.30;85.40;;;;;;4264467;27;20119;-71
2021/08/13 05:37:38;;;;;;;15.43;5.55;;;22.30;85.20;;;;;;4264422;27;20062;-71
2021/08/13 05:39:41;;;;;;;17.35;5.13;;;22.30;86.10;;;;;;4264563;27;20460;-71
2021/08/13 05:41:45;;;;;;;22.25;5.68;;;22.30;85.60;;;;;;4264355;27;20062;-70
2021/08/13 05:43:48;;;;;;;24.02;5.65;;;22.20;86.00;;;;;;4264369;27;20051;-71
2021/08/13 05:45:51;;;;;;;11.75;4.75;;;22.20;85.80;;;;;;4264385;27;20106;-71
2021/08/13 05:47:54;;;;;;;10.57;4.90;;;22.30;85.30;;;;;;4264301;27;20058;-71
2021/08/13 05:49:56;;;;;;;23.13;5.55;;;22.30;85.20;;;;;;4264115;27;20119;-71
2021/08/13 05:51:59;;;;;;;21.00;6.03;;;22.30;85.20;;;;;;4264440;27;20043;-72
2021/08/13 05:54:02;;;;;;;21.10;5.47;;;22.20;86.00;;;;;;4263871;27;20050;-71
2021/08/13 05:56:05;;;;;;;21.52;5.80;;;22.20;86.60;;;;;;4264094;27;20700;-70
2021/08/13 05:58:09;;;;;;;23.85;5.45;;;22.30;85.80;;;;;;4264045;27;20122;-70
2021/08/13 06:00:14;;;;;;;26.40;5.68;;;22.30;85.70;;;;;;4264016;27;20510;-71
2021/08/13 06:02:18;;;;;;;25.70;5.53;;;22.30;86.10;;;;;;4263889;27;20046;-71
2021/08/13 06:04:21;;;;;;;24.63;5.40;;;22.30;85.80;;;;;;4263990;27;20564;-71
2021/08/13 06:06:24;;;;;;;20.63;5.18;;;22.30;85.50;;;;;;4263933;27;20054;-71
2021/08/13 06:08:27;;;;;;;20.00;5.15;;;22.40;85.00;;;;;;4264077;27;20084;-71
2021/08/13 06:10:30;;;;;;;21.70;5.40;;;22.50;85.30;;;;;;4263847;27;20107;-71
2021/08/13 06:12:33;;;;;;;15.43;4.63;;;22.50;85.60;;;;;;4264017;27;20057;-70
2021/08/13 06:14:37;;;;;;;18.33;4.72;;;22.50;85.00;;;;;;4263786;27;20055;-70
2021/08/13 06:16:40;;;;;;;17.02;4.97;;;22.50;84.60;;;;;;4263586;27;20050;-70
2021/08/13 06:18:43;;;;;;;14.95;4.40;;;22.60;84.60;;;;;;4263737;27;20555;-73
2021/08/13 06:20:46;;;;;;;10.52;4.40;;;22.40;85.00;;;;;;4263582;27;20104;-71
2021/08/13 06:22:49;;;;;;;14.38;4.57;;;22.40;85.10;;;;;;4263482;27;20054;-71
2021/08/13 06:24:52;;;;;;;12.25;4.30;;;22.50;84.80;;;;;;4263492;27;20099;-70
2021/08/13 06:26:55;;;;;;;17.25;4.82;;;22.50;85.10;;;;;;4263775;27;20051;-71
2021/08/13 06:28:58;;;;;;;16.70;4.95;;;22.50;84.70;;;;;;4263538;27;20414;-73
2021/08/13 06:31:03;;;;;;;15.27;4.80;;;22.60;85.20;;;;;;4263610;27;20111;-70
2021/08/13 06:33:06;;;;;;;17.48;4.43;;;22.60;85.20;;;;;;4263692;27;20047;-79
2021/08/13 06:35:10;;;;;;;9.63;3.70;;;22.70;85.10;;;;;;4250936;27;20112;-70
2021/08/13 06:37:13;;;;;;;15.18;4.20;;;22.60;84.40;;;;;;4246446;27;20047;-83
2021/08/13 06:39:16;;;;;;;10.30;4.18;;;22.60;84.30;;;;;;4228046;28;20568;-73
2021/08/13 06:41:39;;;;;;;15.77;4.63;;;22.70;84.20;;;;;;4246431;27;20123;-72
2021/08/13 06:43:42;;;;;;;15.38;4.28;;;22.70;84.50;;;;;;4246474;27;20148;-70
2021/08/13 06:45:45;;;;;;;16.98;4.78;;;22.80;84.90;;;;;;4246374;27;20484;-71
2021/08/13 06:47:50;;;;;;;20.15;4.35;;;23.00;84.30;;;;;;4246600;27;20111;-70
2021/08/13 06:49:53;;;;;;;17.35;5.00;;;23.10;83.80;;;;;;4228227;28;20113;-70
2021/08/13 06:51:56;;;;;;;22.58;4.60;;;23.10;83.60;;;;;;4246996;27;20059;-70
2021/08/13 06:53:59;;;;;;;25.38;5.45;;;23.20;83.50;;;;;;4227724;27;20048;-71
2021/08/13 06:56:02;;;;;;;25.60;4.72;;;23.30;83.50;;;;;;4228230;28;20101;-71
2021/08/13 06:58:05;;;;;;;16.63;4.22;;;23.30;83.00;;;;;;4245846;27;20088;-70
2021/08/13 07:00:10;;;;;;;27.75;5.10;;;23.20;82.80;;;;;;4245849;27;20116;-70
2021/08/13 07:02:13;;;;;;;22.67;5.43;;;23.20;82.90;;;;;;4246029;27;20043;-70
2021/08/13 07:04:17;;;;;;;21.92;4.65;;;23.10;83.40;;;;;;4245978;27;20054;-70
2021/08/13 07:06:20;;;;;;;21.30;5.05;;;23.10;83.40;;;;;;4246103;27;20116;-70
2021/08/13 07:08:23;;;;;;;20.25;4.50;;;22.90;83.30;;;;;;4245993;27;20621;-70
2021/08/13 07:10:26;;;;;;;10.95;3.83;;;22.90;83.70;;;;;;4261369;27;20070;-70
2021/08/13 07:12:29;;;;;;;14.60;4.32;;;22.80;83.70;;;;;;4263013;27;20043;-71
2021/08/13 07:14:32;;;;;;;11.20;3.97;;;23.00;83.70;;;;;;4263160;27;20047;-70
2021/08/13 07:16:36;;;;;;;6.78;3.28;;;23.10;83.40;;;;;;4263267;27;20492;-70
2021/08/13 07:18:39;;;;;;;11.10;3.78;;;23.10;83.00;;;;;;4263345;27;20059;-70
2021/08/13 07:20:43;;;;;;;7.13;3.42;;;23.00;83.30;;;;;;4263213;27;20050;-70
2021/08/13 07:22:46;;;;;;;10.02;3.72;;;22.80;83.90;;;;;;4263390;27;20570;-77
2021/08/13 07:24:50;;;;;;;10.85;4.38;;;22.60;85.00;;;;;;4263036;27;20055;-70
2021/08/13 07:26:53;;;;;;;7.53;3.47;;;22.60;85.40;;;;;;4263005;27;20100;-71
2021/08/13 07:28:56;;;;;;;9.85;3.63;;;22.60;85.30;;;;;;4263070;27;20059;-70
2021/08/13 07:30:59;;;;;;;15.02;3.40;;;22.60;85.90;;;;;;4263024;27;20055;-70
2021/08/13 07:33:02;;;;;;;6.68;3.33;;;22.80;85.30;;;;;;4262947;27;20043;-70
2021/08/13 07:35:05;;;;;;;3.75;2.75;;;22.80;84.80;;;;;;4262750;27;20054;-71
2021/08/13 07:37:10;;;;;;;8.10;3.03;;;22.90;84.60;;;;;;4262968;27;20487;-71
2021/08/13 07:39:13;;;;;;;13.70;4.03;;;22.80;84.80;;;;;;4262823;27;20411;-71
2021/08/13 07:41:16;;;;;;;11.88;3.40;;;22.80;84.80;;;;;;4262777;27;20059;-71
2021/08/13 07:43:19;;;;;;;13.98;3.92;;;23.00;85.20;;;;;;4262773;27;20463;-81
2021/08/13 07:45:22;;;;;;;11.38;4.28;;;23.10;85.30;;;;;;4262897;27;20055;-83
2021/08/13 07:47:25;;;;;;;20.67;4.60;;;23.20;85.20;;;;;;4262882;27;20127;-87
2021/08/13 07:49:28;;;;;;;25.33;6.60;;;23.30;84.50;;;;;;4262707;27;20571;-83
2021/08/13 07:51:32;;;;;;;6.18;3.35;;;23.40;83.90;;;;;;4262763;27;20071;-70
2021/08/13 07:53:36;;;;;;;12.20;3.70;;;23.50;83.60;;;;;;4262562;27;20059;-72
2021/08/13 07:55:39;;;;;;;7.43;3.58;;;23.60;83.90;;;;;;4262728;27;20047;-71
2021/08/13 07:57:42;;;;;;;10.60;3.42;;;23.70;83.00;;;;;;4262760;27;20119;-71
2021/08/13 07:59:45;;;;;;;12.00;3.55;;;23.80;83.40;;;;;;4262491;27;20058;-79
2021/08/13 08:01:48;;;;;;;7.55;2.97;;;23.90;82.70;;;;;;4262434;27;20399;-70
2021/08/13 08:03:51;;;;;;;7.90;3.22;;;24.00;82.60;;;;;;4262825;27;20058;-71
2021/08/13 08:06:14;;;;;;;11.73;3.55;;;24.30;82.40;;;;;;4262627;27;20050;-71
2021/08/13 08:08:17;;;;;;;17.63;4.20;;;24.10;82.30;;;;;;4262510;27;20122;-71
2021/08/13 08:10:22;;;;;;;7.22;3.47;;;24.30;82.50;;;;;;4262460;27;20051;-71
2021/08/13 08:12:25;;;;;;;12.90;3.55;;;24.40;81.70;;;;;;4262481;27;20583;-71
2021/08/13 08:14:27;;;;;;;10.38;3.28;;;24.30;81.40;;;;;;4265150;27;20475;-71
2021/08/13 08:16:31;;;;;;;8.55;3.05;;;24.40;81.70;;;;;;4247623;27;20104;-71
2021/08/13 08:18:34;;;;;;;6.20;3.10;;;24.50;81.70;;;;;;4265738;27;20107;-71
2021/08/13 08:20:38;;;;;;;4.53;2.78;;;24.70;82.20;;;;;;4265415;27;20456;-71
2021/08/13 08:22:41;;;;;;;6.38;2.80;;;24.80;81.60;;;;;;4265287;27;20503;-71
2021/08/13 08:24:44;;;;;;;7.72;2.83;;;24.90;80.70;;;;;;4265540;27;20054;-71
2021/08/13 08:26:48;;;;;;;4.20;2.72;;;25.00;80.90;;;;;;4265571;27;20072;-71
2021/08/13 08:28:52;;;;;;;8.07;3.03;;;25.10;79.30;;;;;;4247176;27;20120;-71
2021/08/13 08:30:55;;;;;;;4.32;2.25;;;25.10;79.40;;;;;;4265444;27;20543;-70
2021/08/13 08:32:58;;;;;;;7.25;2.72;;;25.00;78.70;;;;;;4265598;27;20119;-71
2021/08/13 08:35:01;;;;;;;7.10;2.90;;;25.00;79.20;;;;;;4265330;27;20124;-71
2021/08/13 08:37:09;;;;;;;3.65;2.40;;;25.10;78.70;;;;;;4266227;27;20103;-71
2021/08/13 08:39:12;;;;;;;10.63;3.50;;;25.10;79.00;;;;;;4265326;27;20092;-70
2021/08/13 08:41:15;;;;;;;11.82;3.17;;;25.10;77.70;;;;;;4265389;27;20055;-71
2021/08/13 08:43:19;;;;;;;6.07;2.53;;;25.10;76.90;;;;;;4265020;27;20058;-74
2021/08/13 08:45:24;;;;;;;4.47;2.00;;;25.10;77.90;;;;;;4265026;27;20115;-70
2021/08/13 08:47:27;;;;;;;4.25;2.63;;;25.20;77.60;;;;;;4265333;27;20556;-70
2021/08/13 08:49:31;;;;;;;6.03;2.10;;;25.10;77.10;;;;;;4265082;27;20099;-79
2021/08/13 08:51:35;;;;;;;7.35;2.80;;;25.00;77.00;;;;;;4265462;27;20066;-70
2021/08/13 08:53:39;;;;;;;4.38;2.13;;;25.20;77.50;;;;;;4264865;27;20491;-72
2021/08/13 08:55:42;;;;;;;4.65;2.20;;;25.20;76.70;;;;;;4265289;27;20484;-70
2021/08/13 08:57:46;;;;;;;4.38;2.85;;;25.40;77.70;;;;;;4266457;27;20043;-70
2021/08/13 08:59:55;;;;;;;3.93;2.87;;;25.40;76.00;;;;;;4266609;27;20468;-71
2021/08/13 09:01:58;;;;;;;4.25;2.63;;;25.40;75.20;;;;;;4266565;27;20462;-71
2021/08/13 09:04:02;;;;;;;4.50;2.20;;;25.50;76.10;;;;;;4265573;27;20054;-70
2021/08/13 09:06:05;;;;;;;8.02;2.53;;;25.60;76.80;;;;;;4265119;27;20111;-70
2021/08/13 09:08:07;;;;;;;5.70;2.65;;;25.50;75.60;;;;;;4264913;27;20042;-77
2021/08/13 09:10:12;;;;;;;10.10;3.10;;;25.60;76.00;;;;;;4264459;27;20063;-70
2021/08/13 09:12:15;;;;;;;5.43;3.15;;;25.70;75.50;;;;;;4264901;27;20067;-70
2021/08/13 09:14:17;;;;;;;5.25;2.70;;;25.90;76.10;;;;;;4264753;27;20541;-76
2021/08/13 09:16:22;;;;;;;10.30;2.88;;;26.10;76.00;;;;;;4265031;27;20387;-71
2021/08/13 09:18:26;;;;;;;8.18;2.83;;;26.10;74.80;;;;;;4264890;27;20051;-71
2021/08/13 09:20:37;;;;;;;3.35;2.60;;;26.10;75.30;;;;;;4264700;27;20508;-71
2021/08/13 09:22:43;;;;;;;4.35;2.58;;;26.20;75.90;;;;;;4264867;27;20054;-70
2021/08/13 09:24:48;;;;;;;6.20;2.65;;;26.30;76.10;;;;;;4264228;27;20125;-74
2021/08/13 09:26:51;;;;;;;6.55;3.17;;;26.40;75.40;;;;;;4264487;27;20042;-71
2021/08/13 09:28:56;;;;;;;5.43;3.13;;;26.50;75.10;;;;;;4264842;27;20088;-76
2021/08/13 09:31:10;;;;;;;4.32;2.88;;;26.60;76.00;;;;;;4264646;27;20055;-70
2021/08/13 09:33:14;;;;;;;5.20;2.80;;;26.70;75.60;;;;;;4264458;27;20103;-69
2021/08/13 09:35:29;;;;;;;5.47;2.83;;;26.70;76.30;;;;;;4264027;27;20051;-70
2021/08/13 09:37:33;;;;;;;4.55;2.60;;;26.70;75.40;;;;;;4246202;27;20058;-72
2021/08/13 09:39:36;;;;;;;9.27;3.40;;;26.80;74.40;;;;;;4264216;27;20054;-84
2021/08/13 09:41:48;;;;;;;3.53;2.67;;;26.70;73.50;;;;;;4264255;27;20107;-70
2021/08/13 09:43:52;;;;;;;6.72;3.03;;;26.90;75.60;;;;;;4264121;27;20111;-69
2021/08/13 09:46:05;;;;;;;5.03;3.00;;;26.90;74.50;;;;;;4264012;27;20046;-69
2021/08/13 09:48:24;;;;;;;7.22;2.90;;;26.90;73.00;;;;;;4266289;27;20070;-70
2021/08/13 09:50:36;;;;;;;9.45;3.08;;;27.00;74.30;;;;;;4276564;27;20050;-78
2021/08/13 09:52:39;;;;;;;8.50;3.40;;;27.10;73.20;;;;;;4282438;27;20053;-79
2021/08/13 09:54:43;;;;;;;13.38;4.00;;;27.10;74.10;;;;;;4281857;27;20083;-82
2021/08/13 09:56:46;;;;;;;12.80;3.78;;;27.20;73.30;;;;;;4283097;27;20135;-71
2021/08/13 09:58:49;;;;;;;7.20;3.40;;;27.20;74.00;;;;;;4281781;27;20115;-69
2021/08/13 10:00:54;;;;;;;13.20;3.33;;;27.20;73.80;;;;;;4280829;27;20086;-75
2021/08/13 10:03:05;;;;;;;6.00;3.40;;;27.30;73.20;;;;;;4257650;27;20051;-69
2021/08/13 10:05:23;;;;;;;8.10;3.05;;;27.30;74.30;;;;;;4233755;27;20264;-70
2021/08/13 10:07:43;;;;;;;9.27;3.53;;;27.30;72.80;;;;;;4270475;27;20107;-70
2021/08/13 10:09:50;;;;;;;8.43;3.53;;;27.30;74.10;;;;;;4256477;27;20139;-82
2021/08/13 10:11:58;;;;;;;6.25;3.22;;;27.50;73.30;;;;;;4260635;27;20050;-70
2021/08/13 10:14:02;;;;;;;6.40;3.25;;;27.40;72.90;;;;;;4264547;27;20111;-72
2021/08/13 10:16:05;;;;;;;8.60;3.50;;;27.30;71.30;;;;;;4260770;27;20058;-69
2021/08/13 10:18:11;;;;;;;8.15;4.20;;;27.40;73.20;;;;;;4245896;27;20271;-82
2021/08/13 10:20:17;;;;;;;9.38;3.83;;;27.50;72.90;;;;;;4270313;27;20043;-71
2021/08/13 10:22:25;;;;;;;10.50;3.88;;;27.50;73.20;;;;;;4230028;27;20044;-69
2021/08/13 10:24:31;;;;;;;8.85;4.47;;;27.50;72.10;;;;;;4264609;27;20077;-70
2021/08/13 10:26:46;;;;;;;12.27;3.90;;;27.50;72.10;;;;;;4247293;27;20043;-80
2021/08/13 10:28:58;;;;;;;8.75;3.67;;;27.60;71.50;;;;;;4264172;27;20515;-68
2021/08/13 10:31:07;;;;;;;7.78;3.72;;;27.60;72.70;;;;;;4256310;27;20111;-69
2021/08/13 10:33:13;;;;;;;10.07;4.20;;;27.60;71.10;;;;;;4263523;27;20111;-69
2021/08/13 10:35:30;;;;;;;9.38;4.03;;;27.60;71.80;;;;;;4248903;27;20158;-69
2021/08/13 10:37:43;;;;;;;10.05;4.50;;;27.30;71.10;;;;;;4249649;27;20047;-68
2021/08/13 10:39:47;;;;;;;7.97;4.03;;;27.40;72.10;;;;;;4249541;27;20044;-68
2021/08/13 10:41:53;;;;;;;8.93;6.15;;;27.40;70.50;;;;;;4255249;27;20460;-74
2021/08/13 10:44:00;;;;;;;10.45;4.50;;;27.40;71.60;;;;;;4245887;27;20071;-70